createdAt,value
2023-05-15T00:00:44.529Z,86.98
2023-05-15T00:03:12.200Z,86.82
2023-05-15T00:05:39.445Z,87.01
2023-05-15T00:08:06.194Z,86.73
2023-05-15T00:10:32.637Z,85.92
2023-05-15T00:12:59.115Z,86.53
2023-05-15T00:15:25.766Z,86.05
2023-05-15T00:17:52.425Z,86.27
2023-05-15T00:20:19.001Z,86.00
2023-05-15T00:22:45.589Z,86.19
2023-05-15T00:25:12.068Z,86.07
2023-05-15T00:27:38.503Z,86.72
2023-05-15T00:30:05.838Z,86.20
2023-05-15T00:32:32.720Z,86.39
2023-05-15T00:34:59.173Z,86.29
2023-05-15T00:37:25.654Z,85.80
2023-05-15T00:39:52.104Z,85.62
2023-05-15T00:42:19.275Z,85.19
2023-05-15T00:44:47.434Z,85.19
2023-05-15T00:47:14.380Z,84.87
2023-05-15T00:49:41.665Z,85.25
2023-05-15T00:52:08.642Z,84.80
2023-05-15T00:54:35.500Z,85.38
2023-05-15T00:57:06.229Z,85.76
2023-05-15T00:59:33.467Z,85.27
2023-05-15T01:02:00.185Z,85.68
2023-05-15T01:04:26.767Z,85.54
2023-05-15T01:06:53.976Z,85.84
2023-05-15T01:09:23.569Z,86.07
2023-05-15T01:11:53.455Z,85.43
2023-05-15T01:14:20.006Z,85.64
2023-05-15T01:16:46.572Z,85.40
2023-05-15T01:19:13.173Z,86.08
2023-05-15T01:22:16.116Z,86.24
2023-05-15T01:25:03.508Z,86.42
2023-05-15T01:27:43.659Z,86.12
2023-05-15T01:30:22.159Z,86.58
2023-05-15T01:33:03.999Z,86.98
2023-05-15T01:35:40.936Z,86.75
2023-05-15T01:38:19.851Z,86.79
2023-05-15T01:40:48.913Z,87.17
2023-05-15T01:43:19.615Z,87.02
2023-05-15T01:45:46.589Z,86.90
2023-05-15T01:48:17.066Z,87.24
2023-05-15T01:50:45.929Z,87.69
2023-05-15T01:53:15.133Z,88.38
2023-05-15T01:55:42.467Z,88.59
2023-05-15T01:58:09.309Z,88.77
2023-05-15T02:00:37.763Z,89.06
2023-05-15T02:03:05.984Z,89.57
2023-05-15T02:05:34.248Z,89.80
2023-05-15T02:08:03.404Z,89.97
2023-05-15T02:10:31.827Z,90.31
2023-05-15T02:13:01.225Z,89.98
2023-05-15T02:15:29.681Z,90.57
2023-05-15T02:17:56.321Z,90.47
2023-05-15T02:20:22.908Z,90.95
2023-05-15T02:22:49.608Z,90.65
2023-05-15T02:25:16.192Z,91.02
2023-05-15T02:27:48.935Z,91.58
2023-05-15T02:30:30.668Z,91.22
2023-05-15T02:33:24.844Z,91.57
2023-05-15T02:35:57.396Z,91.51
2023-05-15T02:38:33.155Z,91.73
2023-05-15T02:41:01.085Z,91.63
2023-05-15T02:43:29.100Z,91.85
2023-05-15T02:45:57.098Z,91.29
2023-05-15T02:48:24.584Z,91.65
2023-05-15T02:50:53.208Z,91.73
2023-05-15T02:53:19.745Z,91.66
2023-05-15T02:55:46.421Z,91.96
2023-05-15T02:58:13.113Z,92.55
2023-05-15T03:00:39.687Z,92.33
2023-05-15T03:03:06.531Z,92.16
2023-05-15T03:05:33.047Z,92.23
2023-05-15T03:08:00.412Z,92.34
2023-05-15T03:10:26.911Z,92.47
2023-05-15T03:12:58.149Z,92.63
2023-05-15T03:15:24.718Z,92.72
2023-05-15T03:17:51.411Z,92.73
2023-05-15T03:20:17.965Z,92.51
2023-05-15T03:22:44.479Z,93.20
2023-05-15T03:25:11.674Z,92.50
2023-05-15T03:27:38.299Z,92.86
2023-05-15T03:30:05.908Z,92.87
2023-05-15T03:32:32.427Z,93.06
2023-05-15T03:34:58.856Z,93.11
2023-05-15T03:37:25.319Z,93.03
2023-05-15T03:39:51.844Z,92.96
2023-05-15T03:42:23.510Z,93.01
2023-05-15T03:44:50.674Z,93.08
2023-05-15T03:47:17.572Z,93.59
2023-05-15T03:49:44.035Z,93.31
2023-05-15T03:52:10.603Z,93.67
2023-05-15T03:54:37.552Z,93.74
2023-05-15T03:57:07.742Z,93.76
2023-05-15T03:59:34.175Z,94.37
2023-05-15T04:02:04.062Z,94.48
2023-05-15T04:04:31.057Z,94.74
2023-05-15T04:06:57.461Z,94.90
2023-05-15T04:09:23.907Z,94.46
2023-05-15T04:11:50.430Z,94.97
2023-05-15T04:14:16.878Z,94.53
2023-05-15T04:16:43.477Z,94.80
2023-05-15T04:19:10.092Z,94.47
2023-05-15T04:21:36.568Z,94.78
2023-05-15T04:24:03.121Z,94.25
2023-05-15T04:26:29.704Z,94.21
2023-05-15T04:31:29.651Z,94.05
2023-05-15T04:33:56.123Z,94.48
2023-05-15T04:36:22.855Z,94.31
2023-05-15T04:38:49.301Z,93.68
2023-05-15T04:41:15.717Z,93.60
2023-05-15T04:43:42.151Z,93.28
2023-05-15T04:46:08.626Z,93.48
2023-05-15T04:48:35.175Z,93.77
2023-05-15T04:51:01.620Z,93.12
2023-05-15T04:53:28.086Z,93.48
2023-05-15T04:55:54.483Z,93.45
2023-05-15T04:58:20.954Z,93.12
2023-05-15T05:00:47.414Z,93.16
2023-05-15T05:03:13.969Z,93.29
2023-05-15T05:05:40.458Z,93.20
2023-05-15T05:08:06.852Z,93.13
2023-05-15T05:10:33.251Z,92.71
2023-05-15T05:12:59.678Z,92.66
2023-05-15T05:15:26.445Z,92.62
2023-05-15T05:17:53.304Z,92.90
2023-05-15T05:20:19.806Z,92.82
2023-05-15T05:22:46.248Z,92.80
2023-05-15T05:25:12.685Z,93.27
2023-05-15T05:27:39.119Z,93.33
2023-05-15T05:30:06.221Z,93.21
2023-05-15T05:32:32.744Z,93.09
2023-05-15T05:34:59.267Z,92.87
2023-05-15T05:37:26.620Z,93.10
2023-05-15T05:39:53.138Z,93.17
2023-05-15T05:42:19.525Z,92.55
2023-05-15T05:44:45.976Z,92.55
2023-05-15T05:47:12.573Z,92.36
2023-05-15T05:49:39.866Z,92.53
2023-05-15T05:52:09.628Z,92.17
2023-05-15T05:54:36.115Z,91.93
2023-05-15T05:57:02.602Z,91.92
2023-05-15T05:59:29.650Z,91.82
2023-05-15T06:01:56.618Z,92.16
2023-05-15T06:04:23.115Z,91.19
2023-05-15T06:06:50.193Z,90.09
2023-05-15T06:09:16.814Z,89.34
2023-05-15T06:11:43.510Z,89.03
2023-05-15T06:14:09.978Z,88.71
2023-05-15T06:16:36.469Z,88.26
2023-05-15T06:19:03.090Z,87.66
2023-05-15T06:21:29.638Z,86.92
2023-05-15T06:23:56.058Z,86.33
2023-05-15T06:26:22.665Z,86.67
2023-05-15T06:28:49.100Z,85.74
2023-05-15T06:31:17.330Z,86.04
2023-05-15T06:33:43.801Z,85.91
2023-05-15T06:36:10.212Z,85.30
2023-05-15T06:38:36.759Z,85.40
2023-05-15T06:41:03.226Z,84.40
2023-05-15T06:43:29.644Z,83.67
2023-05-15T06:45:56.110Z,83.62
2023-05-15T06:48:22.576Z,83.19
2023-05-15T06:50:49.068Z,82.82
2023-05-15T06:53:17.522Z,82.51
2023-05-15T06:55:44.073Z,82.88
2023-05-15T06:58:10.582Z,82.20
2023-05-15T07:00:37.017Z,82.80
2023-05-15T07:03:03.684Z,83.04
2023-05-15T07:05:30.701Z,82.70
2023-05-15T07:07:57.191Z,83.32
2023-05-15T07:10:23.896Z,82.47
2023-05-15T07:12:50.454Z,83.12
2023-05-15T07:15:17.617Z,83.63
2023-05-15T07:17:44.326Z,83.24
2023-05-15T07:20:11.044Z,83.30
2023-05-15T07:22:41.724Z,83.26
2023-05-15T07:25:16.829Z,83.48
2023-05-15T07:27:43.613Z,83.79
2023-05-15T07:30:10.504Z,84.01
2023-05-15T07:32:36.952Z,83.01
2023-05-15T07:35:04.990Z,82.54
2023-05-15T07:37:31.698Z,82.08
2023-05-15T07:39:58.360Z,81.92
2023-05-15T07:42:25.611Z,82.07
2023-05-15T07:44:52.036Z,82.36
2023-05-15T07:47:18.494Z,82.37
2023-05-15T07:49:44.949Z,82.48
2023-05-15T07:52:11.377Z,81.93
2023-05-15T07:54:39.507Z,82.01
2023-05-15T07:57:06.150Z,82.57
2023-05-15T07:59:32.633Z,82.64
2023-05-15T08:01:59.246Z,82.75
2023-05-15T08:04:25.771Z,82.04
2023-05-15T08:06:52.421Z,82.06
2023-05-15T08:09:19.067Z,82.13
2023-05-15T08:11:45.675Z,81.95
2023-05-15T08:14:13.763Z,81.92
2023-05-15T08:16:40.536Z,81.23
2023-05-15T08:19:07.841Z,80.76
2023-05-15T08:21:34.376Z,79.97
2023-05-15T08:24:00.885Z,79.37
2023-05-15T08:26:27.363Z,79.22
2023-05-15T08:28:53.805Z,79.25
2023-05-15T08:31:20.323Z,78.21
2023-05-15T08:33:46.897Z,77.64
2023-05-15T08:36:14.146Z,76.38
2023-05-15T08:38:40.649Z,76.11
2023-05-15T08:41:38.816Z,75.60
2023-05-15T08:44:08.440Z,74.99
2023-05-15T08:46:35.506Z,74.67
2023-05-15T08:49:10.730Z,73.23
2023-05-15T08:51:38.031Z,73.28
2023-05-15T08:54:04.788Z,73.39
2023-05-15T08:56:31.192Z,71.99
2023-05-15T08:58:58.448Z,70.85
2023-05-15T09:01:25.949Z,70.71
2023-05-15T09:03:52.458Z,70.67
2023-05-15T09:06:19.185Z,69.53
2023-05-15T09:08:46.476Z,68.03
2023-05-15T09:11:13.864Z,67.37
2023-05-15T09:13:40.324Z,67.60
2023-05-15T09:16:08.078Z,67.10
2023-05-15T09:18:34.934Z,66.41
2023-05-15T09:21:24.970Z,67.04
2023-05-15T09:23:52.159Z,67.03
2023-05-15T09:26:18.690Z,66.62
2023-05-15T09:28:46.094Z,65.23
2023-05-15T09:31:13.377Z,65.22
2023-05-15T09:33:42.383Z,65.59
2023-05-15T09:36:09.840Z,64.96
2023-05-15T09:38:43.522Z,64.27
2023-05-15T09:41:10.131Z,63.90
2023-05-15T09:43:38.423Z,63.79
2023-05-15T09:46:06.294Z,63.16
2023-05-15T09:48:33.002Z,63.19
2023-05-15T09:51:00.714Z,62.17
2023-05-15T09:53:28.513Z,61.68
2023-05-15T09:55:56.050Z,61.25
2023-05-15T09:58:23.233Z,60.42
2023-05-15T10:00:49.895Z,59.98
2023-05-15T10:03:22.444Z,60.45
2023-05-15T10:05:49.157Z,59.29
2023-05-15T10:08:16.381Z,59.43
2023-05-15T10:10:43.640Z,59.81
2023-05-15T10:13:11.468Z,58.42
2023-05-15T10:15:39.044Z,57.36
2023-05-15T10:18:06.542Z,57.42
2023-05-15T10:20:35.492Z,55.77
2023-05-15T10:23:04.663Z,55.08
2023-05-15T10:25:55.802Z,54.84
2023-05-15T10:28:22.912Z,54.05
2023-05-15T10:30:49.718Z,54.17
2023-05-15T10:33:16.616Z,54.39
2023-05-15T10:35:44.105Z,53.98
2023-05-15T10:38:11.392Z,54.41
2023-05-15T10:40:40.577Z,54.88
2023-05-15T10:43:10.144Z,55.06
2023-05-15T10:45:37.024Z,54.89
2023-05-15T10:48:06.114Z,54.52
2023-05-15T10:50:32.758Z,56.71
2023-05-15T10:53:00.503Z,59.99
2023-05-15T10:55:27.060Z,62.02
2023-05-15T10:57:54.860Z,62.95
2023-05-15T11:00:24.704Z,63.62
2023-05-15T11:02:57.140Z,65.17
2023-05-15T11:05:24.530Z,65.29
2023-05-15T11:08:15.942Z,65.01
2023-05-15T11:10:42.338Z,65.00
2023-05-15T11:13:08.909Z,66.18
2023-05-15T11:15:43.723Z,66.74
2023-05-15T11:18:10.531Z,66.38
2023-05-15T11:20:43.012Z,64.24
2023-05-15T11:23:09.673Z,64.09
2023-05-15T11:25:37.147Z,64.52
2023-05-15T11:28:05.094Z,64.43
2023-05-15T11:30:39.633Z,64.33
2023-05-15T11:33:13.145Z,64.37
2023-05-15T11:35:48.114Z,65.23
2023-05-15T11:38:22.191Z,67.13
2023-05-15T11:40:58.263Z,69.19
2023-05-15T11:43:32.473Z,70.34
2023-05-15T11:46:13.719Z,71.90
2023-05-15T11:48:44.121Z,71.88
2023-05-15T11:51:31.668Z,71.55
2023-05-15T11:53:58.266Z,70.92
2023-05-15T11:56:30.057Z,70.27
2023-05-15T11:59:01.139Z,69.98
2023-05-15T12:01:29.358Z,70.12
2023-05-15T12:03:55.884Z,69.51
2023-05-15T12:06:22.886Z,69.08
2023-05-15T12:08:53.330Z,68.77
2023-05-15T12:11:24.094Z,68.94
2023-05-15T12:13:54.997Z,68.57
2023-05-15T12:16:28.574Z,68.57
2023-05-15T12:18:58.090Z,67.51
2023-05-15T12:21:26.793Z,67.61
2023-05-15T12:24:06.371Z,68.47
2023-05-15T12:26:34.124Z,68.02
2023-05-15T12:29:00.875Z,67.76
2023-05-15T12:31:27.518Z,66.54
2023-05-15T12:33:54.119Z,66.22
2023-05-15T12:36:21.912Z,66.77
2023-05-15T12:38:48.819Z,67.00
2023-05-15T12:41:15.408Z,67.90
2023-05-15T12:43:41.935Z,67.99
2023-05-15T12:46:09.523Z,68.58
2023-05-15T12:48:36.160Z,69.08
2023-05-15T12:51:07.407Z,70.42
2023-05-15T12:53:34.436Z,70.75
2023-05-15T12:56:01.348Z,71.00
2023-05-15T12:58:27.981Z,70.40
2023-05-15T13:00:54.845Z,70.11
2023-05-15T13:03:22.228Z,69.82
2023-05-15T13:05:48.885Z,69.65
2023-05-15T13:08:17.538Z,69.35
2023-05-15T13:10:45.751Z,66.68
2023-05-15T13:13:12.303Z,62.79
2023-05-15T13:15:41.040Z,62.27
2023-05-15T13:18:13.302Z,61.23
2023-05-15T13:20:44.401Z,59.28
2023-05-15T13:23:11.608Z,57.94
2023-05-15T13:25:38.143Z,57.45
2023-05-15T13:28:06.491Z,55.65
2023-05-15T13:30:34.643Z,53.90
2023-05-15T13:33:01.770Z,53.41
2023-05-15T13:35:28.494Z,52.97
2023-05-15T13:37:54.946Z,52.62
2023-05-15T13:40:21.485Z,53.02
2023-05-15T13:42:48.213Z,53.09
2023-05-15T13:45:16.451Z,52.84
2023-05-15T13:47:43.646Z,52.50
2023-05-15T13:50:12.641Z,52.26
2023-05-15T13:52:39.854Z,51.39
2023-05-15T13:55:09.582Z,50.16
2023-05-15T13:57:40.405Z,49.54
2023-05-15T14:00:09.985Z,48.87
2023-05-15T14:02:36.437Z,48.82
2023-05-15T14:05:04.642Z,46.08
2023-05-15T14:07:31.833Z,46.02
2023-05-15T14:09:58.383Z,44.98
2023-05-15T14:12:25.177Z,43.47
2023-05-15T14:14:51.616Z,41.80
2023-05-15T14:17:18.469Z,40.88
2023-05-15T14:19:44.964Z,39.92
2023-05-15T14:22:11.464Z,40.18
2023-05-15T14:24:37.928Z,40.72
2023-05-15T14:27:04.711Z,39.93
2023-05-15T14:29:31.597Z,40.41
2023-05-15T14:31:58.154Z,40.84
2023-05-15T14:34:24.701Z,40.79
2023-05-15T14:36:51.173Z,40.06
2023-05-15T14:39:18.496Z,38.98
2023-05-15T14:41:45.837Z,38.50
2023-05-15T14:44:12.292Z,38.76
2023-05-15T14:46:42.094Z,38.75
2023-05-15T14:49:08.808Z,38.95
2023-05-15T14:51:35.309Z,38.95
2023-05-15T14:54:01.729Z,38.83
2023-05-15T14:56:28.254Z,38.97
2023-05-15T14:58:54.816Z,38.37
2023-05-15T15:01:21.457Z,38.71
2023-05-15T15:06:14.761Z,37.46
2023-05-15T15:08:41.380Z,37.92
2023-05-15T15:11:07.952Z,37.63
2023-05-15T15:13:34.441Z,37.33
2023-05-15T15:16:00.912Z,37.41
2023-05-15T15:18:27.371Z,36.64
2023-05-15T15:20:53.868Z,35.66
2023-05-15T15:23:20.437Z,35.76
2023-05-15T15:25:46.954Z,36.07
2023-05-15T15:28:13.391Z,36.85
2023-05-15T15:30:40.035Z,36.76
2023-05-15T15:33:06.572Z,36.38
2023-05-15T15:35:32.997Z,36.93
2023-05-15T15:37:59.536Z,36.95
2023-05-15T15:40:26.536Z,37.32
2023-05-15T15:42:54.160Z,37.31
2023-05-15T15:45:20.816Z,38.02
2023-05-15T15:47:47.370Z,38.89
2023-05-15T15:50:13.872Z,40.42
2023-05-15T15:52:40.348Z,41.20
2023-05-15T15:55:07.571Z,42.38
2023-05-15T15:57:34.126Z,42.25
2023-05-15T16:00:00.587Z,41.55
2023-05-15T16:02:28.242Z,41.20
2023-05-15T16:04:54.856Z,40.67
2023-05-15T16:07:21.523Z,40.20
2023-05-15T16:09:56.924Z,39.31
2023-05-15T16:12:35.197Z,39.23
2023-05-15T16:15:17.427Z,39.18
2023-05-15T16:17:50.687Z,39.22
2023-05-15T16:20:17.436Z,39.33
2023-05-15T16:22:44.240Z,39.80
2023-05-15T16:25:10.806Z,40.52
2023-05-15T16:27:37.470Z,40.84
2023-05-15T16:30:04.202Z,41.52
2023-05-15T16:32:30.982Z,41.78
2023-05-15T16:34:57.557Z,42.38
2023-05-15T16:37:24.011Z,43.09
2023-05-15T16:39:50.492Z,43.58
2023-05-15T16:42:16.964Z,43.93
2023-05-15T16:44:43.507Z,44.05
2023-05-15T16:47:10.016Z,44.47
2023-05-15T16:49:36.475Z,45.44
2023-05-15T16:52:03.090Z,45.57
2023-05-15T16:54:29.571Z,46.03
2023-05-15T16:56:56.163Z,46.17
2023-05-15T16:59:22.657Z,46.34
2023-05-15T17:01:49.094Z,46.88
2023-05-15T17:04:15.537Z,47.47
2023-05-15T17:06:41.958Z,48.06
2023-05-15T17:09:08.672Z,48.91
2023-05-15T17:11:35.276Z,49.93
2023-05-15T17:14:01.974Z,50.83
2023-05-15T17:16:29.118Z,51.50
2023-05-15T17:18:55.735Z,51.95
2023-05-15T17:21:22.231Z,53.05
2023-05-15T17:23:50.707Z,54.21
2023-05-15T17:26:17.150Z,54.38
2023-05-15T17:28:43.752Z,53.77
2023-05-15T17:31:11.054Z,53.24
2023-05-15T17:33:37.466Z,53.40
2023-05-15T17:36:05.156Z,54.13
2023-05-15T17:38:31.614Z,54.11
2023-05-15T17:40:58.064Z,54.41
2023-05-15T17:43:24.535Z,55.06
2023-05-15T17:45:51.008Z,55.89
2023-05-15T17:48:17.513Z,57.19
2023-05-15T17:50:44.052Z,59.46
2023-05-15T17:53:10.662Z,61.76
2023-05-15T17:55:37.375Z,62.84
2023-05-15T17:58:03.999Z,64.31
2023-05-15T18:00:30.549Z,65.47
2023-05-15T18:02:57.062Z,65.39
2023-05-15T18:05:23.793Z,65.41
2023-05-15T18:07:50.543Z,65.39
2023-05-15T18:10:17.078Z,65.80
2023-05-15T18:12:43.611Z,66.11
2023-05-15T18:15:10.546Z,66.69
2023-05-15T18:17:37.039Z,66.83
2023-05-15T18:20:05.548Z,67.40
2023-05-15T18:22:32.065Z,67.86
2023-05-15T18:24:58.542Z,68.84
2023-05-15T18:27:25.013Z,69.55
2023-05-15T18:29:51.706Z,70.18
2023-05-15T18:32:19.349Z,71.08
2023-05-15T18:34:46.994Z,71.50
2023-05-15T18:37:13.747Z,72.02
2023-05-15T18:39:41.830Z,72.70
2023-05-15T18:42:08.494Z,73.32
2023-05-15T18:44:35.876Z,73.63
2023-05-15T18:47:03.591Z,74.06
2023-05-15T18:49:30.081Z,74.58
2023-05-15T18:51:56.695Z,74.91
2023-05-15T18:54:23.336Z,75.42
2023-05-15T18:56:49.898Z,75.39
2023-05-15T18:59:16.362Z,75.73
2023-05-15T19:01:42.885Z,76.04
2023-05-15T19:04:09.362Z,76.57
2023-05-15T19:06:35.956Z,76.35
2023-05-15T19:09:03.168Z,76.92
2023-05-15T19:11:29.754Z,76.93
2023-05-15T19:13:56.184Z,77.07
2023-05-15T19:16:26.868Z,77.12
2023-05-15T19:18:53.337Z,77.43
2023-05-15T19:21:21.039Z,77.80
2023-05-15T19:23:49.094Z,77.80
2023-05-15T19:26:15.534Z,78.07
2023-05-15T19:28:42.000Z,78.27
2023-05-15T19:31:20.425Z,78.34
2023-05-15T19:33:54.275Z,77.78
2023-05-15T19:36:20.810Z,78.34
2023-05-15T19:38:47.849Z,78.26
2023-05-15T19:41:14.752Z,78.74
2023-05-15T19:43:41.401Z,78.37
2023-05-15T19:46:07.949Z,78.93
2023-05-15T19:48:34.593Z,78.82
2023-05-15T19:51:01.032Z,79.04
2023-05-15T19:53:27.526Z,79.36
2023-05-15T19:55:54.033Z,79.33
2023-05-15T19:58:22.333Z,79.80
2023-05-15T20:00:49.813Z,80.30
2023-05-15T20:03:16.300Z,80.34
2023-05-15T20:05:43.023Z,80.28
2023-05-15T20:08:09.443Z,80.23
2023-05-15T20:10:35.963Z,80.18
2023-05-15T20:13:03.414Z,79.81
2023-05-15T20:15:31.564Z,79.99
2023-05-15T20:17:58.185Z,79.46
2023-05-15T20:20:25.270Z,79.49
2023-05-15T20:22:52.003Z,80.06
2023-05-15T20:25:18.540Z,79.91
2023-05-15T20:27:44.969Z,79.62
2023-05-15T20:30:11.805Z,80.21
2023-05-15T20:32:38.381Z,79.72
2023-05-15T20:35:05.693Z,80.52
2023-05-15T20:37:33.217Z,80.15
2023-05-15T20:40:00.263Z,80.90
2023-05-15T20:42:28.147Z,81.27
2023-05-15T20:44:54.728Z,81.10
2023-05-15T20:47:21.208Z,81.98
2023-05-15T20:49:47.688Z,82.18
2023-05-15T20:52:14.119Z,82.15
2023-05-15T20:54:40.557Z,81.81
2023-05-15T20:57:07.088Z,81.86
2023-05-15T20:59:33.951Z,81.71
2023-05-15T21:02:00.386Z,82.37
2023-05-15T21:04:27.143Z,81.64
2023-05-15T21:06:54.692Z,82.04
2023-05-15T21:09:21.166Z,81.93
2023-05-15T21:11:47.637Z,82.25
2023-05-15T21:14:14.379Z,82.29
2023-05-15T21:16:41.028Z,82.26
2023-05-15T21:19:07.627Z,82.46
2023-05-15T21:21:35.310Z,83.05
2023-05-15T21:24:03.511Z,82.88
2023-05-15T21:26:30.555Z,83.13
2023-05-15T21:28:58.976Z,83.39
2023-05-15T21:31:26.849Z,83.02
2023-05-15T21:33:54.173Z,83.51
2023-05-15T21:36:20.784Z,83.38
2023-05-15T21:38:47.442Z,83.01
2023-05-15T21:41:13.897Z,83.43
2023-05-15T21:43:40.395Z,83.57
2023-05-15T21:46:06.840Z,82.94
2023-05-15T21:48:33.284Z,83.28
2023-05-15T21:50:59.743Z,83.03
2023-05-15T21:53:26.339Z,83.27
2023-05-15T21:55:59.300Z,83.57
2023-05-15T21:58:25.962Z,83.44
2023-05-15T22:00:52.478Z,83.23
2023-05-15T22:03:19.889Z,83.18
2023-05-15T22:05:47.593Z,83.17
2023-05-15T22:08:14.072Z,83.38
2023-05-15T22:10:41.166Z,83.45
2023-05-15T22:13:08.937Z,83.16
2023-05-15T22:15:35.769Z,83.48
2023-05-15T22:18:03.405Z,83.40
2023-05-15T22:20:29.935Z,83.60
2023-05-15T22:22:56.373Z,82.82
2023-05-15T22:25:22.952Z,82.80
2023-05-15T22:27:49.495Z,83.07
2023-05-15T22:30:16.034Z,82.92
2023-05-15T22:32:42.505Z,83.52
2023-05-15T22:35:09.709Z,83.35
2023-05-15T22:37:36.711Z,83.62
2023-05-15T22:40:03.985Z,83.32
2023-05-15T22:42:30.390Z,83.80
2023-05-15T22:44:57.709Z,83.50
2023-05-15T22:47:24.785Z,83.47
2023-05-15T22:49:51.399Z,83.72
2023-05-15T22:52:18.658Z,83.70
2023-05-15T22:54:45.135Z,83.82
2023-05-15T22:57:11.600Z,84.04
2023-05-15T22:59:38.356Z,84.31
2023-05-15T23:02:05.086Z,84.32
2023-05-15T23:04:31.586Z,84.77
2023-05-15T23:06:58.039Z,84.56
2023-05-15T23:09:24.498Z,84.96
2023-05-15T23:11:51.610Z,84.83
2023-05-15T23:14:18.070Z,84.64
2023-05-15T23:16:44.565Z,84.61
2023-05-15T23:19:11.058Z,84.86
2023-05-15T23:21:38.151Z,84.66
2023-05-15T23:24:05.043Z,84.42
2023-05-15T23:26:31.946Z,84.75
2023-05-15T23:28:58.359Z,84.80
2023-05-15T23:31:24.960Z,84.17
2023-05-15T23:33:51.748Z,84.41
2023-05-15T23:36:18.297Z,84.56
2023-05-15T23:38:45.488Z,84.53
2023-05-15T23:41:11.992Z,84.64
2023-05-15T23:43:38.456Z,84.77
2023-05-15T23:46:05.089Z,85.16
2023-05-15T23:48:31.678Z,85.00
2023-05-15T23:50:58.671Z,85.20
2023-05-15T23:53:25.188Z,85.12
2023-05-15T23:55:51.762Z,85.49
2023-05-15T23:58:18.182Z,85.52
